sensor_id;sensor_type;location;lat;lon;timestamp;pressure;altitude;pressure_sealevel;temperature;humidity
8366;BME280;4220;42.502;24.188;2024-01-07T00:00:18;93884.44;;;8.79;100.00
8366;BME280;4220;42.502;24.188;2024-01-07T00:02:45;93875.81;;;8.84;100.00
8366;BME280;4220;42.502;24.188;2024-01-07T00:05:12;93881.97;;;8.89;100.00
8366;BME280;4220;42.502;24.188;2024-01-07T00:07:39;93878.06;;;8.92;100.00
8366;BME280;4220;42.502;24.188;2024-01-07T00:10:07;93892.28;;;9.07;100.00
8366;BME280;4220;42.502;24.188;2024-01-07T00:12:34;93882.91;;;9.16;100.00
8366;BME280;4220;42.502;24.188;2024-01-07T00:15:01;93876.91;;;9.21;100.00
8366;BME280;4220;42.502;24.188;2024-01-07T00:17:29;93864.88;;;9.30;100.00
8366;BME280;4220;42.502;24.188;2024-01-07T00:19:56;93850.63;;;9.31;100.00
8366;BME280;4220;42.502;24.188;2024-01-07T00:22:23;93847.72;;;9.33;100.00
8366;BME280;4220;42.502;24.188;2024-01-07T00:24:50;93857.56;;;9.37;100.00
8366;BME280;4220;42.502;24.188;2024-01-07T00:27:17;93845.53;;;9.30;100.00
8366;BME280;4220;42.502;24.188;2024-01-07T00:29:43;93818.59;;;9.11;100.00
8366;BME280;4220;42.502;24.188;2024-01-07T00:32:10;93852.44;;;9.31;100.00
8366;BME280;4220;42.502;24.188;2024-01-07T00:34:38;93859.66;;;9.35;100.00
8366;BME280;4220;42.502;24.188;2024-01-07T00:37:05;93853.44;;;9.46;100.00
8366;BME280;4220;42.502;24.188;2024-01-07T00:39:32;93848.78;;;9.53;100.00
8366;BME280;4220;42.502;24.188;2024-01-07T00:41:59;93849.97;;;9.62;100.00
8366;BME280;4220;42.502;24.188;2024-01-07T00:44:26;93841.69;;;9.59;100.00
8366;BME280;4220;42.502;24.188;2024-01-07T00:46:52;93847.63;;;9.66;100.00
8366;BME280;4220;42.502;24.188;2024-01-07T00:49:19;93838.22;;;9.75;100.00
8366;BME280;4220;42.502;24.188;2024-01-07T00:51:47;93850.16;;;9.77;100.00
8366;BME280;4220;42.502;24.188;2024-01-07T00:54:14;93844.28;;;9.75;100.00
8366;BME280;4220;42.502;24.188;2024-01-07T00:56:41;93832.19;;;9.79;100.00
8366;BME280;4220;42.502;24.188;2024-01-07T00:59:08;93827.97;;;9.83;100.00
8366;BME280;4220;42.502;24.188;2024-01-07T01:01:34;93815.00;;;9.82;100.00
8366;BME280;4220;42.502;24.188;2024-01-07T01:04:01;93807.28;;;9.80;100.00
8366;BME280;4220;42.502;24.188;2024-01-07T01:06:28;93785.34;;;9.80;100.00
8366;BME280;4220;42.502;24.188;2024-01-07T01:08:56;93768.63;;;9.79;100.00
8366;BME280;4220;42.502;24.188;2024-01-07T01:11:23;93761.28;;;9.86;100.00
8366;BME280;4220;42.502;24.188;2024-01-07T01:13:50;93739.56;;;9.84;100.00
8366;BME280;4220;42.502;24.188;2024-01-07T01:16:16;93729.22;;;9.83;100.00
8366;BME280;4220;42.502;24.188;2024-01-07T01:18:43;93726.22;;;9.74;100.00
8366;BME280;4220;42.502;24.188;2024-01-07T01:21:10;93707.28;;;9.61;100.00
8366;BME280;4220;42.502;24.188;2024-01-07T01:23:37;93718.97;;;9.65;100.00
8366;BME280;4220;42.502;24.188;2024-01-07T01:26:05;93716.06;;;9.66;100.00
8366;BME280;4220;42.502;24.188;2024-01-07T01:28:32;93689.50;;;9.56;100.00
8366;BME280;4220;42.502;24.188;2024-01-07T01:30:59;93712.78;;;9.81;100.00
8366;BME280;4220;42.502;24.188;2024-01-07T01:33:26;93679.63;;;9.73;100.00
8366;BME280;4220;42.502;24.188;2024-01-07T01:35:53;93677.59;;;9.85;100.00
8366;BME280;4220;42.502;24.188;2024-01-07T01:38:20;93679.22;;;9.86;100.00
8366;BME280;4220;42.502;24.188;2024-01-07T01:40:51;93668.56;;;9.81;100.00
8366;BME280;4220;42.502;24.188;2024-01-07T01:43:23;93669.34;;;9.77;100.00
8366;BME280;4220;42.502;24.188;2024-01-07T01:45:51;93656.38;;;9.80;100.00
8366;BME280;4220;42.502;24.188;2024-01-07T01:48:18;93674.72;;;9.87;100.00
8366;BME280;4220;42.502;24.188;2024-01-07T01:50:45;93618.84;;;9.57;100.00
8366;BME280;4220;42.502;24.188;2024-01-07T01:53:13;93661.22;;;9.88;100.00
8366;BME280;4220;42.502;24.188;2024-01-07T01:55:40;93647.19;;;9.88;100.00
8366;BME280;4220;42.502;24.188;2024-01-07T01:58:08;93633.94;;;9.88;100.00
8366;BME280;4220;42.502;24.188;2024-01-07T02:00:37;93633.94;;;9.88;100.00
8366;BME280;4220;42.502;24.188;2024-01-07T02:03:04;93612.97;;;9.81;100.00
8366;BME280;4220;42.502;24.188;2024-01-07T02:05:31;93623.66;;;9.92;100.00
8366;BME280;4220;42.502;24.188;2024-01-07T02:07:59;93606.69;;;9.88;100.00
8366;BME280;4220;42.502;24.188;2024-01-07T02:10:25;93606.16;;;9.91;100.00
8366;BME280;4220;42.502;24.188;2024-01-07T02:12:54;93591.88;;;9.92;100.00
8366;BME280;4220;42.502;24.188;2024-01-07T02:15:21;93587.09;;;9.88;100.00
8366;BME280;4220;42.502;24.188;2024-01-07T02:17:49;93595.06;;;9.94;100.00
8366;BME280;4220;42.502;24.188;2024-01-07T02:20:16;93563.69;;;9.75;100.00
8366;BME280;4220;42.502;24.188;2024-01-07T02:22:42;93609.13;;;9.94;100.00
8366;BME280;4220;42.502;24.188;2024-01-07T02:25:11;93589.69;;;9.83;100.00
8366;BME280;4220;42.502;24.188;2024-01-07T02:27:37;93589.78;;;9.94;100.00
8366;BME280;4220;42.502;24.188;2024-01-07T02:30:05;93579.72;;;9.96;100.00
8366;BME280;4220;42.502;24.188;2024-01-07T02:32:32;93589.84;;;10.04;100.00
8366;BME280;4220;42.502;24.188;2024-01-07T02:35:00;93585.84;;;10.01;100.00
8366;BME280;4220;42.502;24.188;2024-01-07T02:37:27;93590.81;;;9.93;100.00
8366;BME280;4220;42.502;24.188;2024-01-07T02:39:54;93596.41;;;9.96;100.00
8366;BME280;4220;42.502;24.188;2024-01-07T02:42:22;93589.22;;;9.92;100.00
8366;BME280;4220;42.502;24.188;2024-01-07T02:44:49;93586.06;;;9.90;100.00
8366;BME280;4220;42.502;24.188;2024-01-07T02:47:16;93607.84;;;10.02;100.00
8366;BME280;4220;42.502;24.188;2024-01-07T02:49:42;93585.31;;;9.99;100.00
8366;BME280;4220;42.502;24.188;2024-01-07T02:52:09;93549.44;;;9.81;100.00
8366;BME280;4220;42.502;24.188;2024-01-07T02:54:36;93490.97;;;9.51;100.00
8366;BME280;4220;42.502;24.188;2024-01-07T02:57:03;93547.41;;;9.94;100.00
8366;BME280;4220;42.502;24.188;2024-01-07T02:59:31;93547.69;;;9.92;100.00
8366;BME280;4220;42.502;24.188;2024-01-07T03:01:58;93538.66;;;9.93;100.00
8366;BME280;4220;42.502;24.188;2024-01-07T03:04:25;93547.63;;;9.87;100.00
8366;BME280;4220;42.502;24.188;2024-01-07T03:06:52;93438.06;;;9.14;100.00
8366;BME280;4220;42.502;24.188;2024-01-07T03:09:19;93546.78;;;9.81;100.00
8366;BME280;4220;42.502;24.188;2024-01-07T03:11:46;93535.72;;;9.84;100.00
8366;BME280;4220;42.502;24.188;2024-01-07T03:14:13;93536.22;;;9.81;100.00
8366;BME280;4220;42.502;24.188;2024-01-07T03:16:43;93533.06;;;9.84;100.00
8366;BME280;4220;42.502;24.188;2024-01-07T03:19:10;93523.28;;;9.85;100.00
8366;BME280;4220;42.502;24.188;2024-01-07T03:21:37;93526.72;;;9.91;100.00
8366;BME280;4220;42.502;24.188;2024-01-07T03:24:04;93527.81;;;9.90;100.00
8366;BME280;4220;42.502;24.188;2024-01-07T03:26:31;93535.75;;;9.90;100.00
8366;BME280;4220;42.502;24.188;2024-01-07T03:28:58;93534.13;;;9.88;100.00
8366;BME280;4220;42.502;24.188;2024-01-07T03:31:28;93525.19;;;9.95;100.00
8366;BME280;4220;42.502;24.188;2024-01-07T03:33:56;93518.50;;;9.87;100.00
8366;BME280;4220;42.502;24.188;2024-01-07T03:36:23;93515.94;;;9.97;100.00
8366;BME280;4220;42.502;24.188;2024-01-07T03:38:50;93524.16;;;10.01;100.00
8366;BME280;4220;42.502;24.188;2024-01-07T03:41:21;93529.41;;;9.96;100.00
8366;BME280;4220;42.502;24.188;2024-01-07T03:43:48;93505.78;;;9.84;100.00
8366;BME280;4220;42.502;24.188;2024-01-07T03:46:19;93518.25;;;9.88;100.00
8366;BME280;4220;42.502;24.188;2024-01-07T03:49:01;93512.72;;;9.95;100.00
8366;BME280;4220;42.502;24.188;2024-01-07T03:51:34;93508.16;;;9.85;100.00
8366;BME280;4220;42.502;24.188;2024-01-07T03:54:17;93481.56;;;9.65;100.00
8366;BME280;4220;42.502;24.188;2024-01-07T03:56:46;93492.66;;;9.62;100.00
8366;BME280;4220;42.502;24.188;2024-01-07T03:59:15;93499.31;;;9.65;100.00
8366;BME280;4220;42.502;24.188;2024-01-07T04:01:42;93491.56;;;9.58;100.00
8366;BME280;4220;42.502;24.188;2024-01-07T04:04:13;93509.53;;;9.56;100.00
8366;BME280;4220;42.502;24.188;2024-01-07T04:06:40;93505.16;;;9.35;100.00
8366;BME280;4220;42.502;24.188;2024-01-07T04:09:14;93485.41;;;9.16;100.00
8366;BME280;4220;42.502;24.188;2024-01-07T04:11:42;93500.72;;;9.14;100.00
8366;BME280;4220;42.502;24.188;2024-01-07T04:14:09;93491.16;;;9.08;100.00
8366;BME280;4220;42.502;24.188;2024-01-07T04:16:42;93440.81;;;8.66;100.00
8366;BME280;4220;42.502;24.188;2024-01-07T04:19:12;93490.97;;;8.88;100.00
8366;BME280;4220;42.502;24.188;2024-01-07T04:21:39;93481.34;;;8.77;100.00
8366;BME280;4220;42.502;24.188;2024-01-07T04:24:06;93469.97;;;8.76;100.00
8366;BME280;4220;42.502;24.188;2024-01-07T04:26:33;93449.22;;;8.90;100.00
8366;BME280;4220;42.502;24.188;2024-01-07T04:28:59;93419.91;;;8.91;100.00
8366;BME280;4220;42.502;24.188;2024-01-07T04:31:26;93373.97;;;8.71;100.00
8366;BME280;4220;42.502;24.188;2024-01-07T04:33:53;93402.25;;;9.02;100.00
8366;BME280;4220;42.502;24.188;2024-01-07T04:36:21;93390.09;;;9.01;100.00
8366;BME280;4220;42.502;24.188;2024-01-07T04:38:48;93402.81;;;9.04;100.00
8366;BME280;4220;42.502;24.188;2024-01-07T04:41:15;93421.44;;;8.87;100.00
8366;BME280;4220;42.502;24.188;2024-01-07T04:43:42;93424.81;;;8.83;100.00
8366;BME280;4220;42.502;24.188;2024-01-07T04:46:11;93446.34;;;8.91;100.00
8366;BME280;4220;42.502;24.188;2024-01-07T04:48:37;93437.28;;;8.87;100.00
8366;BME280;4220;42.502;24.188;2024-01-07T04:51:04;93448.75;;;8.98;100.00
8366;BME280;4220;42.502;24.188;2024-01-07T04:53:33;93464.13;;;9.01;100.00
8366;BME280;4220;42.502;24.188;2024-01-07T04:55:59;93455.06;;;8.92;100.00
8366;BME280;4220;42.502;24.188;2024-01-07T04:58:26;93462.94;;;8.87;100.00
8366;BME280;4220;42.502;24.188;2024-01-07T05:00:53;93441.50;;;8.83;100.00
8366;BME280;4220;42.502;24.188;2024-01-07T05:03:20;93435.41;;;8.83;100.00
8366;BME280;4220;42.502;24.188;2024-01-07T05:05:47;93440.25;;;8.91;100.00
8366;BME280;4220;42.502;24.188;2024-01-07T05:08:13;93392.19;;;8.67;100.00
8366;BME280;4220;42.502;24.188;2024-01-07T05:10:42;93439.03;;;9.03;100.00
8366;BME280;4220;42.502;24.188;2024-01-07T05:13:08;93461.03;;;9.09;100.00
8366;BME280;4220;42.502;24.188;2024-01-07T05:15:36;93443.47;;;8.98;100.00
8366;BME280;4220;42.502;24.188;2024-01-07T05:18:02;93460.47;;;9.07;100.00
8366;BME280;4220;42.502;24.188;2024-01-07T05:20:33;93479.56;;;9.14;100.00
8366;BME280;4220;42.502;24.188;2024-01-07T05:23:00;93486.47;;;9.15;100.00
8366;BME280;4220;42.502;24.188;2024-01-07T05:25:27;93491.75;;;9.15;100.00
8366;BME280;4220;42.502;24.188;2024-01-07T05:27:55;93485.16;;;9.17;100.00
8366;BME280;4220;42.502;24.188;2024-01-07T05:30:22;93478.53;;;9.15;100.00
8366;BME280;4220;42.502;24.188;2024-01-07T05:32:48;93469.59;;;9.21;100.00
8366;BME280;4220;42.502;24.188;2024-01-07T05:35:15;93461.72;;;9.26;100.00
8366;BME280;4220;42.502;24.188;2024-01-07T05:37:42;93467.50;;;9.23;100.00
8366;BME280;4220;42.502;24.188;2024-01-07T05:40:10;93474.13;;;9.26;100.00
8366;BME280;4220;42.502;24.188;2024-01-07T05:42:37;93471.25;;;9.32;100.00
8366;BME280;4220;42.502;24.188;2024-01-07T05:45:06;93471.56;;;9.36;100.00
8366;BME280;4220;42.502;24.188;2024-01-07T05:47:33;93475.56;;;9.38;100.00
8366;BME280;4220;42.502;24.188;2024-01-07T05:49:59;93472.34;;;9.36;100.00
8366;BME280;4220;42.502;24.188;2024-01-07T05:52:27;93432.25;;;9.17;100.00
8366;BME280;4220;42.502;24.188;2024-01-07T05:54:54;93472.94;;;9.43;100.00
8366;BME280;4220;42.502;24.188;2024-01-07T05:57:21;93470.31;;;9.43;100.00
8366;BME280;4220;42.502;24.188;2024-01-07T05:59:47;93474.03;;;9.47;100.00
8366;BME280;4220;42.502;24.188;2024-01-07T06:02:17;93477.13;;;9.39;100.00
8366;BME280;4220;42.502;24.188;2024-01-07T06:04:44;93488.75;;;9.33;100.00
8366;BME280;4220;42.502;24.188;2024-01-07T06:07:11;93497.44;;;9.34;100.00
8366;BME280;4220;42.502;24.188;2024-01-07T06:09:38;93503.50;;;9.29;100.00
8366;BME280;4220;42.502;24.188;2024-01-07T06:12:05;93510.97;;;9.37;100.00
8366;BME280;4220;42.502;24.188;2024-01-07T06:14:32;93509.47;;;9.46;100.00
8366;BME280;4220;42.502;24.188;2024-01-07T06:16:59;93516.84;;;9.44;100.00
8366;BME280;4220;42.502;24.188;2024-01-07T06:19:27;93525.34;;;9.46;100.00
8366;BME280;4220;42.502;24.188;2024-01-07T06:21:54;93512.09;;;9.46;100.00
8366;BME280;4220;42.502;24.188;2024-01-07T06:24:21;93519.06;;;9.52;100.00
8366;BME280;4220;42.502;24.188;2024-01-07T06:26:48;93493.31;;;9.43;100.00
8366;BME280;4220;42.502;24.188;2024-01-07T06:29:15;93497.88;;;9.52;100.00
8366;BME280;4220;42.502;24.188;2024-01-07T06:31:45;93495.16;;;9.42;100.00
8366;BME280;4220;42.502;24.188;2024-01-07T06:34:12;93488.63;;;9.55;100.00
8366;BME280;4220;42.502;24.188;2024-01-07T06:36:40;93493.19;;;9.64;100.00
8366;BME280;4220;42.502;24.188;2024-01-07T06:39:07;93482.56;;;9.59;100.00
8366;BME280;4220;42.502;24.188;2024-01-07T06:41:34;93467.13;;;9.46;100.00
8366;BME280;4220;42.502;24.188;2024-01-07T06:44:01;93440.63;;;9.41;100.00
8366;BME280;4220;42.502;24.188;2024-01-07T06:46:28;93458.44;;;9.51;100.00
8366;BME280;4220;42.502;24.188;2024-01-07T06:48:55;93470.84;;;9.45;100.00
8366;BME280;4220;42.502;24.188;2024-01-07T06:51:22;93483.38;;;9.23;100.00
8366;BME280;4220;42.502;24.188;2024-01-07T06:53:50;93483.72;;;9.05;100.00
8366;BME280;4220;42.502;24.188;2024-01-07T06:56:17;93478.88;;;8.97;100.00
8366;BME280;4220;42.502;24.188;2024-01-07T06:58:44;93463.41;;;9.10;100.00
8366;BME280;4220;42.502;24.188;2024-01-07T07:01:10;93460.63;;;9.27;100.00
8366;BME280;4220;42.502;24.188;2024-01-07T07:03:39;93472.34;;;9.36;100.00
8366;BME280;4220;42.502;24.188;2024-01-07T07:06:06;93473.41;;;9.35;100.00
8366;BME280;4220;42.502;24.188;2024-01-07T07:08:33;93487.78;;;9.49;100.00
8366;BME280;4220;42.502;24.188;2024-01-07T07:11:02;93484.69;;;9.57;100.00
8366;BME280;4220;42.502;24.188;2024-01-07T07:13:29;93481.56;;;9.65;100.00
8366;BME280;4220;42.502;24.188;2024-01-07T07:15:55;93488.53;;;9.76;100.00
8366;BME280;4220;42.502;24.188;2024-01-07T07:18:22;93492.28;;;9.85;100.00
8366;BME280;4220;42.502;24.188;2024-01-07T07:20:49;93492.84;;;9.93;100.00
8366;BME280;4220;42.502;24.188;2024-01-07T07:23:16;93496.81;;;9.90;100.00
8366;BME280;4220;42.502;24.188;2024-01-07T07:25:43;93501.88;;;9.97;100.00
8366;BME280;4220;42.502;24.188;2024-01-07T07:28:12;93504.81;;;10.00;100.00
8366;BME280;4220;42.502;24.188;2024-01-07T07:30:39;93501.19;;;10.11;100.00
8366;BME280;4220;42.502;24.188;2024-01-07T07:33:06;93497.28;;;10.19;100.00
8366;BME280;4220;42.502;24.188;2024-01-07T07:35:33;93497.84;;;10.26;100.00
8366;BME280;4220;42.502;24.188;2024-01-07T07:37:59;93495.22;;;10.31;100.00
8366;BME280;4220;42.502;24.188;2024-01-07T07:40:26;93465.94;;;10.11;100.00
8366;BME280;4220;42.502;24.188;2024-01-07T07:42:53;93503.22;;;10.41;100.00
8366;BME280;4220;42.502;24.188;2024-01-07T07:45:21;93499.50;;;10.42;100.00
8366;BME280;4220;42.502;24.188;2024-01-07T07:47:48;93505.06;;;10.40;100.00
8366;BME280;4220;42.502;24.188;2024-01-07T07:50:15;93505.31;;;10.34;100.00
8366;BME280;4220;42.502;24.188;2024-01-07T07:52:41;93501.06;;;10.38;100.00
8366;BME280;4220;42.502;24.188;2024-01-07T07:55:09;93474.50;;;10.23;100.00
8366;BME280;4220;42.502;24.188;2024-01-07T07:57:36;93440.25;;;10.11;100.00
8366;BME280;4220;42.502;24.188;2024-01-07T08:00:03;93490.03;;;10.61;100.00
8366;BME280;4220;42.502;24.188;2024-01-07T08:02:32;93508.63;;;10.76;100.00
8366;BME280;4220;42.502;24.188;2024-01-07T08:04:59;93508.06;;;10.69;100.00
8366;BME280;4220;42.502;24.188;2024-01-07T08:07:26;93513.13;;;10.66;100.00
8366;BME280;4220;42.502;24.188;2024-01-07T08:09:52;93508.63;;;10.66;100.00
8366;BME280;4220;42.502;24.188;2024-01-07T08:12:22;93510.22;;;10.77;100.00
8366;BME280;4220;42.502;24.188;2024-01-07T08:14:49;93505.22;;;10.81;100.00
8366;BME280;4220;42.502;24.188;2024-01-07T08:17:16;93468.84;;;10.61;100.00
8366;BME280;4220;42.502;24.188;2024-01-07T08:19:44;93501.22;;;10.78;100.00
8366;BME280;4220;42.502;24.188;2024-01-07T08:22:11;93501.53;;;10.92;100.00
8366;BME280;4220;42.502;24.188;2024-01-07T08:24:39;93483.78;;;10.97;100.00
8366;BME280;4220;42.502;24.188;2024-01-07T08:27:07;93483.50;;;11.04;100.00
8366;BME280;4220;42.502;24.188;2024-01-07T08:29:34;93481.91;;;11.13;100.00
8366;BME280;4220;42.502;24.188;2024-01-07T08:32:01;93485.38;;;11.18;100.00
8366;BME280;4220;42.502;24.188;2024-01-07T08:34:28;93482.75;;;11.24;100.00
8366;BME280;4220;42.502;24.188;2024-01-07T08:36:56;93484.34;;;11.25;100.00
8366;BME280;4220;42.502;24.188;2024-01-07T08:39:23;93487.00;;;11.30;100.00
8366;BME280;4220;42.502;24.188;2024-01-07T08:41:51;93481.69;;;11.25;100.00
8366;BME280;4220;42.502;24.188;2024-01-07T08:44:18;93474.75;;;11.13;100.00
8366;BME280;4220;42.502;24.188;2024-01-07T08:46:44;93476.38;;;11.20;100.00
8366;BME280;4220;42.502;24.188;2024-01-07T08:49:12;93499.72;;;11.18;100.00
8366;BME280;4220;42.502;24.188;2024-01-07T08:51:39;93500.25;;;11.20;100.00
8366;BME280;4220;42.502;24.188;2024-01-07T08:54:07;93493.63;;;11.17;100.00
8366;BME280;4220;42.502;24.188;2024-01-07T08:56:34;93501.06;;;11.25;100.00
8366;BME280;4220;42.502;24.188;2024-01-07T08:59:00;93487.81;;;11.30;100.00
8366;BME280;4220;42.502;24.188;2024-01-07T09:01:29;93484.59;;;11.28;100.00
8366;BME280;4220;42.502;24.188;2024-01-07T09:03:56;93503.72;;;11.40;100.00
8366;BME280;4220;42.502;24.188;2024-01-07T09:06:23;93504.53;;;11.51;100.00
8366;BME280;4220;42.502;24.188;2024-01-07T09:08:50;93504.28;;;11.47;100.00
8366;BME280;4220;42.502;24.188;2024-01-07T09:11:20;93501.88;;;11.56;100.00
8366;BME280;4220;42.502;24.188;2024-01-07T09:13:46;93500.81;;;11.67;100.00
8366;BME280;4220;42.502;24.188;2024-01-07T09:16:17;93487.53;;;11.72;100.00
8366;BME280;4220;42.502;24.188;2024-01-07T09:18:44;93487.53;;;11.87;100.00
8366;BME280;4220;42.502;24.188;2024-01-07T09:21:11;93487.81;;;11.86;100.00
8366;BME280;4220;42.502;24.188;2024-01-07T09:23:38;93481.69;;;11.95;100.00
8366;BME280;4220;42.502;24.188;2024-01-07T09:26:05;93480.88;;;12.05;100.00
8366;BME280;4220;42.502;24.188;2024-01-07T09:28:33;93485.88;;;12.21;100.00
8366;BME280;4220;42.502;24.188;2024-01-07T09:31:00;93449.78;;;12.10;100.00
8366;BME280;4220;42.502;24.188;2024-01-07T09:33:27;93472.56;;;12.31;100.00
8366;BME280;4220;42.502;24.188;2024-01-07T09:35:54;93455.84;;;12.21;100.00
8366;BME280;4220;42.502;24.188;2024-01-07T09:38:20;93471.19;;;12.39;100.00
8366;BME280;4220;42.502;24.188;2024-01-07T09:40:47;93417.38;;;12.08;100.00
8366;BME280;4220;42.502;24.188;2024-01-07T09:43:14;93472.75;;;12.55;100.00
8366;BME280;4220;42.502;24.188;2024-01-07T09:45:46;93470.38;;;12.43;100.00
8366;BME280;4220;42.502;24.188;2024-01-07T09:48:13;93465.00;;;12.59;100.00
8366;BME280;4220;42.502;24.188;2024-01-07T09:50:42;93472.09;;;12.78;100.00
8366;BME280;4220;42.502;24.188;2024-01-07T09:53:13;93474.94;;;12.97;100.00
8366;BME280;4220;42.502;24.188;2024-01-07T09:55:47;93475.97;;;13.01;100.00
8366;BME280;4220;42.502;24.188;2024-01-07T09:58:19;93481.78;;;13.13;100.00
8366;BME280;4220;42.502;24.188;2024-01-07T10:00:47;93481.16;;;13.26;100.00
8366;BME280;4220;42.502;24.188;2024-01-07T10:03:14;93473.66;;;13.33;100.00
8366;BME280;4220;42.502;24.188;2024-01-07T10:05:41;93461.28;;;13.47;100.00
8366;BME280;4220;42.502;24.188;2024-01-07T10:08:08;93473.63;;;13.38;100.00
8366;BME280;4220;42.502;24.188;2024-01-07T10:10:35;93458.41;;;13.44;100.00
8366;BME280;4220;42.502;24.188;2024-01-07T10:13:03;93468.69;;;13.55;100.00
8366;BME280;4220;42.502;24.188;2024-01-07T10:15:31;93463.81;;;13.67;100.00
8366;BME280;4220;42.502;24.188;2024-01-07T10:18:04;93453.06;;;13.77;100.00
8366;BME280;4220;42.502;24.188;2024-01-07T10:20:32;93443.09;;;13.88;100.00
8366;BME280;4220;42.502;24.188;2024-01-07T10:22:59;93445.25;;;13.86;100.00
8366;BME280;4220;42.502;24.188;2024-01-07T10:25:27;93451.78;;;13.99;100.00
8366;BME280;4220;42.502;24.188;2024-01-07T10:27:54;93442.16;;;14.03;100.00
8366;BME280;4220;42.502;24.188;2024-01-07T10:30:20;93454.25;;;14.19;100.00
8366;BME280;4220;42.502;24.188;2024-01-07T10:32:48;93449.88;;;14.28;100.00
8366;BME280;4220;42.502;24.188;2024-01-07T10:35:18;93434.94;;;14.32;100.00
8366;BME280;4220;42.502;24.188;2024-01-07T10:37:47;93434.03;;;14.42;100.00
8366;BME280;4220;42.502;24.188;2024-01-07T10:40:14;93403.44;;;14.34;100.00
8366;BME280;4220;42.502;24.188;2024-01-07T10:42:43;93434.19;;;14.50;100.00
8366;BME280;4220;42.502;24.188;2024-01-07T10:45:10;93431.19;;;14.33;100.00
8366;BME280;4220;42.502;24.188;2024-01-07T10:47:40;93425.94;;;14.23;100.00
8366;BME280;4220;42.502;24.188;2024-01-07T10:50:08;93419.25;;;14.02;100.00
8366;BME280;4220;42.502;24.188;2024-01-07T10:52:40;93421.91;;;14.02;100.00
8366;BME280;4220;42.502;24.188;2024-01-07T10:55:09;93418.72;;;14.00;100.00
8366;BME280;4220;42.502;24.188;2024-01-07T10:57:42;93379.81;;;13.75;100.00
8366;BME280;4220;42.502;24.188;2024-01-07T11:00:11;93411.50;;;14.05;100.00
8366;BME280;4220;42.502;24.188;2024-01-07T11:02:50;93413.97;;;13.97;100.00
8366;BME280;4220;42.502;24.188;2024-01-07T11:05:23;93385.50;;;13.68;100.00
8366;BME280;4220;42.502;24.188;2024-01-07T11:07:57;93414.25;;;13.66;100.00
8366;BME280;4220;42.502;24.188;2024-01-07T11:10:33;93404.66;;;13.37;100.00
8366;BME280;4220;42.502;24.188;2024-01-07T11:13:03;93407.19;;;13.23;100.00
8366;BME280;4220;42.502;24.188;2024-01-07T11:15:52;93402.44;;;13.15;100.00
8366;BME280;4220;42.502;24.188;2024-01-07T11:18:20;93404.59;;;13.13;100.00
8366;BME280;4220;42.502;24.188;2024-01-07T11:20:48;93392.13;;;13.08;100.00
8366;BME280;4220;42.502;24.188;2024-01-07T11:23:29;93389.78;;;12.97;100.00
8366;BME280;4220;42.502;24.188;2024-01-07T11:25:58;93397.75;;;13.02;100.00
8366;BME280;4220;42.502;24.188;2024-01-07T11:28:48;93400.28;;;13.17;100.00
8366;BME280;4220;42.502;24.188;2024-01-07T11:31:16;93395.31;;;13.39;100.00
8366;BME280;4220;42.502;24.188;2024-01-07T11:33:45;93360.72;;;13.39;100.00
8366;BME280;4220;42.502;24.188;2024-01-07T11:36:12;93385.59;;;13.82;100.00
8366;BME280;4220;42.502;24.188;2024-01-07T11:38:45;93390.59;;;13.89;99.68
8366;BME280;4220;42.502;24.188;2024-01-07T11:41:12;93391.38;;;13.89;97.87
8366;BME280;4220;42.502;24.188;2024-01-07T11:43:56;93360.88;;;13.76;96.20
8366;BME280;4220;42.502;24.188;2024-01-07T11:46:25;93347.59;;;13.71;97.77
8366;BME280;4220;42.502;24.188;2024-01-07T11:48:54;93387.31;;;14.20;94.32
8366;BME280;4220;42.502;24.188;2024-01-07T11:51:24;93385.72;;;14.43;93.28
8366;BME280;4220;42.502;24.188;2024-01-07T11:53:52;93375.47;;;14.31;92.42
8366;BME280;4220;42.502;24.188;2024-01-07T11:56:19;93385.59;;;14.53;93.90
8366;BME280;4220;42.502;24.188;2024-01-07T11:58:46;93383.91;;;14.81;92.72
8366;BME280;4220;42.502;24.188;2024-01-07T12:01:14;93374.94;;;14.90;90.61
8366;BME280;4220;42.502;24.188;2024-01-07T12:03:43;93376.78;;;15.08;92.61
8366;BME280;4220;42.502;24.188;2024-01-07T12:06:10;93375.56;;;15.20;90.96
8366;BME280;4220;42.502;24.188;2024-01-07T12:08:39;93366.00;;;15.00;89.16
8366;BME280;4220;42.502;24.188;2024-01-07T12:11:07;93375.59;;;14.82;89.10
8366;BME280;4220;42.502;24.188;2024-01-07T12:13:36;93383.88;;;14.62;91.39
8366;BME280;4220;42.502;24.188;2024-01-07T12:16:04;93385.59;;;14.53;90.89
8366;BME280;4220;42.502;24.188;2024-01-07T12:18:31;93377.31;;;14.73;92.60
8366;BME280;4220;42.502;24.188;2024-01-07T12:20:59;93370.47;;;14.86;92.03
8366;BME280;4220;42.502;24.188;2024-01-07T12:23:26;93385.59;;;15.28;91.43
8366;BME280;4220;42.502;24.188;2024-01-07T12:25:53;93377.78;;;15.50;89.90
8366;BME280;4220;42.502;24.188;2024-01-07T12:28:22;93382.97;;;15.60;88.93
8366;BME280;4220;42.502;24.188;2024-01-07T12:30:49;93378.72;;;15.40;87.69
8366;BME280;4220;42.502;24.188;2024-01-07T12:33:17;93377.56;;;15.46;88.78
8366;BME280;4220;42.502;24.188;2024-01-07T12:35:46;93376.84;;;15.73;89.40
8366;BME280;4220;42.502;24.188;2024-01-07T12:38:13;93368.16;;;15.95;85.88
8366;BME280;4220;42.502;24.188;2024-01-07T12:40:40;93382.03;;;16.10;83.79
8366;BME280;4220;42.502;24.188;2024-01-07T12:43:07;93378.56;;;16.23;85.03
8366;BME280;4220;42.502;24.188;2024-01-07T12:45:36;93378.88;;;16.35;82.99
8366;BME280;4220;42.502;24.188;2024-01-07T12:48:04;93388.06;;;16.29;83.62
8366;BME280;4220;42.502;24.188;2024-01-07T12:50:31;93381.53;;;16.08;82.33
8366;BME280;4220;42.502;24.188;2024-01-07T12:52:58;93386.75;;;15.86;83.05
8366;BME280;4220;42.502;24.188;2024-01-07T12:55:26;93399.28;;;15.40;85.13
8366;BME280;4220;42.502;24.188;2024-01-07T12:57:53;93396.34;;;15.23;86.26
8366;BME280;4220;42.502;24.188;2024-01-07T13:00:22;93394.34;;;14.96;87.29
8366;BME280;4220;42.502;24.188;2024-01-07T13:02:53;93393.97;;;14.65;88.35
8366;BME280;4220;42.502;24.188;2024-01-07T13:05:20;93391.28;;;14.47;88.45
8366;BME280;4220;42.502;24.188;2024-01-07T13:07:47;93379.16;;;14.12;88.72
8366;BME280;4220;42.502;24.188;2024-01-07T13:10:15;93387.19;;;14.07;90.47